Time;durP1;ratioP1;P1;durP2;ratioP2;P2;SDS_P1;SDS_P2;PMS_P1;PMS_P2;Temp;Humidity;BMP_temperature;BMP_pressure;BME280_temperature;BME280_humidity;BME280_pressure;Samples;Min_cycle;Max_cycle;Signal;HPM_P1;HPM_P2
2020/12/01 00:01:12;;;;;;;20.08;8.05;;;1.30;1.00;;;;;;5093742;28;20668;-76
2020/12/01 00:03:42;;;;;;;14.07;6.05;;;1.30;1.00;;;;;;5089279;28;20182;-76
2020/12/01 00:06:18;;;;;;;5.97;3.40;;;1.30;1.00;;;;;;5081764;28;20170;-77
2020/12/01 00:08:48;;;;;;;13.93;7.38;;;1.30;1.00;;;;;;5094537;28;20168;-77
2020/12/01 00:11:15;;;;;;;24.83;8.38;;;1.30;1.00;;;;;;5086458;28;20171;-75
2020/12/01 00:13:48;;;;;;;17.55;6.57;;;1.30;1.00;;;;;;5091117;28;20216;-75
2020/12/01 00:16:36;;;;;;;15.40;6.55;;;1.30;1.00;;;;;;5091429;28;20190;-76
2020/12/01 00:19:06;;;;;;;24.60;9.13;;;1.30;1.00;;;;;;5094150;28;20240;-75
2020/12/01 00:21:36;;;;;;;13.85;6.43;;;1.30;1.00;;;;;;5091698;28;20173;-75
2020/12/01 00:24:03;;;;;;;17.25;7.15;;;1.30;1.00;;;;;;5094288;28;20176;-76
2020/12/01 00:26:30;;;;;;;19.00;8.18;;;1.30;1.00;;;;;;5094425;28;20147;-76
2020/12/01 00:29:07;;;;;;;13.30;5.75;;;1.30;1.00;;;;;;5089989;28;20177;-77
2020/12/01 00:31:42;;;;;;;19.98;8.10;;;1.40;1.00;;;;;;5089022;28;20633;-77
2020/12/01 00:34:18;;;;;;;17.17;5.97;;;1.40;1.00;;;;;;5074283;28;20253;-77
2020/12/01 00:37:03;;;;;;;10.82;5.78;;;1.40;1.00;;;;;;5082225;28;20544;-77
2020/12/01 00:39:36;;;;;;;22.08;7.43;;;1.40;1.00;;;;;;5074212;28;20187;-77
2020/12/01 00:42:06;;;;;;;14.25;7.45;;;1.40;1.00;;;;;;5084492;28;20676;-77
2020/12/01 00:44:36;;;;;;;11.48;6.57;;;1.40;1.00;;;;;;5073406;28;20221;-76
2020/12/01 00:47:06;;;;;;;12.93;6.30;;;1.50;1.00;;;;;;5083343;28;20529;-77
2020/12/01 00:49:36;;;;;;;17.73;6.38;;;1.50;1.00;;;;;;5073571;28;20171;-76
2020/12/01 00:52:06;;;;;;;13.02;4.60;;;1.50;1.00;;;;;;5079337;28;20175;-77
2020/12/01 00:54:32;;;;;;;15.68;7.15;;;1.60;1.00;;;;;;5093853;28;20616;-77
2020/12/01 00:57:06;;;;;;;11.47;6.40;;;1.50;1.00;;;;;;5081191;28;20191;-76
2020/12/01 00:59:32;;;;;;;14.57;6.55;;;1.50;1.00;;;;;;5077726;28;20157;-75
2020/12/01 01:02:00;;;;;;;13.10;7.10;;;1.60;1.00;;;;;;5081294;28;20178;-75
2020/12/01 01:04:36;;;;;;;19.90;7.88;;;1.60;1.00;;;;;;5097469;28;20237;-75
2020/12/01 01:07:06;;;;;;;16.67;7.18;;;1.60;1.00;;;;;;5097641;28;20162;-75
2020/12/01 01:09:37;;;;;;;17.75;6.18;;;1.60;1.00;;;;;;5097799;28;20247;-75
2020/12/01 01:12:06;;;;;;;19.13;9.77;;;1.60;1.00;;;;;;5079844;28;20240;-76
2020/12/01 01:14:38;;;;;;;20.42;8.48;;;1.60;1.00;;;;;;5077381;28;20190;-75
2020/12/01 01:17:06;;;;;;;15.23;6.90;;;1.60;1.00;;;;;;5077109;28;20205;-75
2020/12/01 01:19:36;;;;;;;19.58;8.00;;;1.60;1.00;;;;;;5076945;28;20182;-75
2020/12/01 01:22:02;;;;;;;18.50;8.38;;;1.60;1.00;;;;;;5077375;28;20232;-76
2020/12/01 01:24:28;;;;;;;12.33;6.47;;;1.60;1.00;;;;;;5080621;28;20175;-75
2020/12/01 01:26:54;;;;;;;13.83;7.00;;;1.60;1.00;;;;;;5077745;28;20175;-75
2020/12/01 01:29:21;;;;;;;20.00;7.45;;;1.60;1.00;;;;;;5077376;28;20697;-75
2020/12/01 01:32:00;;;;;;;22.88;7.50;;;1.60;1.00;;;;;;5087443;28;20171;-76
2020/12/01 01:34:36;;;;;;;5.28;4.20;;;1.70;1.00;;;;;;5097337;28;20242;-75
2020/12/01 01:37:06;;;;;;;27.58;8.10;;;1.70;1.00;;;;;;5094958;28;20707;-76
2020/12/01 01:39:37;;;;;;;12.00;6.30;;;1.70;1.00;;;;;;5085809;28;20171;-75
2020/12/01 01:42:10;;;;;;;18.20;7.85;;;1.70;1.00;;;;;;5077385;28;20155;-76
2020/12/01 01:44:36;;;;;;;20.27;7.65;;;1.70;1.00;;;;;;5076946;28;20159;-75
2020/12/01 01:47:16;;;;;;;17.45;7.55;;;1.70;1.00;;;;;;5097054;28;20190;-75
2020/12/01 01:49:43;;;;;;;22.55;7.82;;;1.70;1.00;;;;;;5096934;28;20171;-76
2020/12/01 01:52:22;;;;;;;28.92;8.48;;;1.70;1.00;;;;;;5094756;28;20287;-76
2020/12/01 01:54:54;;;;;;;13.25;7.15;;;1.70;1.00;;;;;;5083886;28;20183;-75
2020/12/01 01:57:38;;;;;;;21.75;7.32;;;1.70;1.00;;;;;;5077156;28;20189;-76
2020/12/01 02:00:20;;;;;;;21.58;8.10;;;1.70;1.00;;;;;;5082222;28;20177;-76
2020/12/01 02:02:45;;;;;;;18.05;8.15;;;1.70;1.00;;;;;;5097081;28;20189;-76
2020/12/01 02:05:18;;;;;;;16.23;7.30;;;1.70;1.00;;;;;;5095623;28;20182;-76
2020/12/01 02:07:49;;;;;;;26.08;8.55;;;1.70;1.00;;;;;;5075841;28;20613;-76
2020/12/01 02:10:19;;;;;;;21.02;8.45;;;1.70;1.00;;;;;;5078100;28;20183;-76
2020/12/01 02:12:47;;;;;;;20.90;8.52;;;1.90;1.00;;;;;;5096949;28;20176;-76
2020/12/01 02:15:19;;;;;;;10.57;6.22;;;1.90;1.00;;;;;;5096566;28;20170;-76
2020/12/01 02:17:55;;;;;;;19.30;7.55;;;1.90;1.00;;;;;;5096692;28;20229;-76
2020/12/01 02:20:32;;;;;;;24.15;9.73;;;1.90;1.00;;;;;;5079534;28;20191;-76
2020/12/01 02:23:06;;;;;;;14.43;7.53;;;1.90;1.00;;;;;;5083894;28;20500;-76
2020/12/01 02:25:32;;;;;;;20.10;7.05;;;1.90;1.00;;;;;;5076431;28;20162;-76
2020/12/01 02:28:12;;;;;;;14.57;8.20;;;1.90;1.00;;;;;;5086159;28;20239;-77
2020/12/01 02:31:06;;;;;;;19.80;8.15;;;1.90;1.00;;;;;;5096451;28;20403;-77
2020/12/01 02:33:32;;;;;;;18.58;8.52;;;1.90;1.00;;;;;;5096321;28;20609;-77
2020/12/01 02:36:13;;;;;;;23.63;9.37;;;2.00;1.00;;;;;;5093484;28;20323;-77
2020/12/01 02:38:42;;;;;;;28.70;9.20;;;2.00;1.00;;;;;;5094982;28;20196;-77
2020/12/01 02:41:12;;;;;;;16.02;8.75;;;2.00;1.00;;;;;;5095572;28;20169;-77
2020/12/01 02:43:42;;;;;;;17.13;7.38;;;2.00;1.00;;;;;;5089703;28;20171;-77
2020/12/01 02:46:08;;;;;;;12.20;7.72;;;2.00;1.00;;;;;;5075645;28;20168;-77
2020/12/01 02:48:34;;;;;;;18.83;8.07;;;2.00;1.00;;;;;;5075597;28;20285;-77
2020/12/01 02:51:00;;;;;;;11.67;6.13;;;1.90;1.00;;;;;;5077068;28;20185;-77
2020/12/01 02:53:30;;;;;;;16.73;7.57;;;2.00;1.00;;;;;;5075843;28;20159;-77
2020/12/01 02:56:00;;;;;;;21.95;9.32;;;2.00;1.00;;;;;;5075851;28;20203;-77
2020/12/01 02:58:42;;;;;;;18.02;8.13;;;2.00;1.00;;;;;;5075795;28;20621;-77
2020/12/01 03:01:12;;;;;;;24.40;8.18;;;2.00;1.00;;;;;;5074985;28;20517;-77
2020/12/01 03:03:43;;;;;;;14.05;7.10;;;2.00;1.00;;;;;;5079808;28;20625;-77
2020/12/01 03:06:19;;;;;;;17.23;8.02;;;1.90;1.00;;;;;;5076695;28;20193;-77
2020/12/01 03:09:08;;;;;;;18.58;7.97;;;1.90;1.00;;;;;;5095539;28;20158;-77
2020/12/01 03:12:00;;;;;;;21.02;8.15;;;1.90;1.00;;;;;;5091980;28;20508;-77
2020/12/01 03:14:36;;;;;;;20.25;6.72;;;2.00;1.00;;;;;;5095809;28;20163;-76
2020/12/01 03:17:02;;;;;;;14.15;5.95;;;1.90;1.00;;;;;;5075153;28;20285;-76
2020/12/01 03:19:42;;;;;;;15.90;7.80;;;2.00;1.00;;;;;;5075046;28;20270;-76
2020/12/01 03:22:30;;;;;;;14.82;6.10;;;2.10;1.00;;;;;;5092167;28;20506;-76
2020/12/01 03:25:18;;;;;;;14.27;6.78;;;2.00;1.00;;;;;;5080970;28;20254;-76
2020/12/01 03:28:00;;;;;;;20.50;8.40;;;2.00;1.00;;;;;;5075343;28;20238;-76
2020/12/01 03:30:30;;;;;;;21.55;8.23;;;2.00;1.00;;;;;;5074658;28;20171;-77
2020/12/01 03:33:00;;;;;;;12.65;6.55;;;2.00;1.00;;;;;;5074552;28;20594;-77
2020/12/01 03:35:27;;;;;;;16.58;6.45;;;2.00;1.00;;;;;;5074055;28;20565;-77
2020/12/01 03:37:55;;;;;;;17.48;6.90;;;2.10;1.00;;;;;;5073379;28;20591;-77
2020/12/01 03:40:36;;;;;;;13.73;7.07;;;2.10;1.00;;;;;;5075012;28;20219;-77
2020/12/01 03:43:13;;;;;;;15.35;7.13;;;2.00;1.00;;;;;;5074955;28;20151;-77
2020/12/01 03:46:18;;;;;;;20.58;8.75;;;2.00;1.00;;;;;;5074090;28;20253;-77
2020/12/01 03:49:00;;;;;;;18.48;6.90;;;2.00;1.00;;;;;;5074288;28;20159;-77
2020/12/01 03:51:30;;;;;;;18.48;7.97;;;2.00;1.00;;;;;;5086689;28;20524;-77
2020/12/01 03:54:18;;;;;;;12.85;5.70;;;2.00;1.00;;;;;;5073055;28;20534;-77
2020/12/01 03:56:44;;;;;;;18.05;5.75;;;1.90;1.00;;;;;;5074221;28;20187;-77
2020/12/01 03:59:30;;;;;;;13.00;7.37;;;2.00;1.00;;;;;;5074373;28;20151;-76
2020/12/01 04:02:01;;;;;;;9.57;5.45;;;2.10;1.00;;;;;;5088031;28;20174;-76
2020/12/01 04:04:28;;;;;;;16.73;6.82;;;2.10;1.00;;;;;;5094191;28;20205;-76
2020/12/01 04:07:00;;;;;;;16.95;7.00;;;2.00;1.00;;;;;;5094547;28;20154;-76
2020/12/01 04:09:36;;;;;;;12.30;6.57;;;2.00;1.00;;;;;;5092461;28;20532;-76
2020/12/01 04:12:12;;;;;;;18.90;8.02;;;2.00;1.00;;;;;;5094510;28;20489;-76
2020/12/01 04:14:43;;;;;;;17.60;7.88;;;1.90;1.00;;;;;;5093017;28;20614;-76
2020/12/01 04:17:12;;;;;;;11.27;6.03;;;1.90;1.00;;;;;;5074032;28;20718;-76
2020/12/01 04:19:49;;;;;;;16.20;7.53;;;2.00;1.00;;;;;;5078904;28;20552;-76
2020/12/01 04:22:24;;;;;;;11.75;6.28;;;2.00;1.00;;;;;;5076062;28;20297;-76
2020/12/01 04:25:04;;;;;;;17.48;7.18;;;1.90;1.00;;;;;;5074216;28;20154;-76
2020/12/01 04:27:30;;;;;;;20.95;5.80;;;2.00;1.00;;;;;;5073876;28;20163;-77
2020/12/01 04:30:18;;;;;;;20.23;7.73;;;2.00;1.00;;;;;;5074433;28;20199;-76
2020/12/01 04:32:45;;;;;;;13.32;6.75;;;2.00;1.00;;;;;;5073503;28;20454;-76
2020/12/01 04:35:12;;;;;;;14.80;6.20;;;2.00;1.00;;;;;;5085456;28;20546;-76
2020/12/01 04:37:38;;;;;;;13.77;6.13;;;2.00;1.00;;;;;;5094047;28;20598;-76
2020/12/01 04:40:10;;;;;;;20.57;7.27;;;2.00;1.00;;;;;;5091810;28;20206;-76
2020/12/01 04:42:51;;;;;;;15.50;6.38;;;2.00;1.00;;;;;;5094231;28;20159;-76
2020/12/01 04:45:18;;;;;;;19.95;7.93;;;2.00;1.00;;;;;;5094168;28;20166;-76
2020/12/01 04:48:08;;;;;;;12.63;6.47;;;2.00;1.00;;;;;;5089353;28;20202;-76
2020/12/01 04:50:36;;;;;;;14.82;7.00;;;2.00;1.00;;;;;;5074175;28;20175;-76
2020/12/01 04:53:42;;;;;;;20.70;8.23;;;2.00;1.00;;;;;;5073814;28;20558;-76
2020/12/01 04:56:26;;;;;;;25.70;8.43;;;2.10;1.00;;;;;;5073714;28;20187;-76
2020/12/01 04:59:13;;;;;;;18.67;8.13;;;2.20;1.00;;;;;;5074073;28;20626;-77
2020/12/01 05:02:06;;;;;;;15.13;6.43;;;2.20;1.00;;;;;;5086032;28;20178;-77
2020/12/01 05:04:57;;;;;;;17.42;7.35;;;2.20;1.00;;;;;;5093546;28;20544;-77
2020/12/01 05:07:45;;;;;;;28.75;7.50;;;2.20;1.00;;;;;;5074201;28;20627;-77
2020/12/01 05:10:13;;;;;;;18.75;7.18;;;2.20;1.00;;;;;;5073643;28;20163;-77
2020/12/01 05:13:11;;;;;;;19.92;7.95;;;2.20;1.00;;;;;;5073222;28;20222;-77
2020/12/01 05:15:39;;;;;;;18.40;8.35;;;2.20;1.00;;;;;;5073747;28;20179;-77
2020/12/01 05:18:23;;;;;;;19.25;7.45;;;2.20;1.00;;;;;;5073443;28;20175;-77
2020/12/01 05:21:03;;;;;;;13.98;6.80;;;2.20;1.00;;;;;;5087755;28;20529;-77
2020/12/01 05:23:48;;;;;;;16.58;6.75;;;2.20;1.00;;;;;;5089654;28;20163;-77
2020/12/01 05:26:17;;;;;;;18.50;6.85;;;2.20;1.00;;;;;;5072029;28;20529;-77
2020/12/01 05:29:00;;;;;;;20.27;8.00;;;2.30;1.00;;;;;;5092374;28;20177;-76
2020/12/01 05:31:54;;;;;;;18.13;7.57;;;2.30;1.00;;;;;;5093769;28;20707;-77
2020/12/01 05:34:22;;;;;;;15.68;6.38;;;2.30;1.00;;;;;;5073146;28;20237;-77
2020/12/01 05:37:03;;;;;;;18.92;7.53;;;2.30;1.00;;;;;;5072990;28;20202;-77
2020/12/01 05:39:33;;;;;;;19.30;8.50;;;2.30;1.00;;;;;;5071846;28;20175;-78
2020/12/01 05:42:05;;;;;;;14.55;7.40;;;2.30;1.00;;;;;;5089076;28;20209;-77
2020/12/01 05:44:44;;;;;;;19.05;7.63;;;2.30;1.00;;;;;;5081659;28;20163;-77
2020/12/01 05:47:18;;;;;;;18.30;8.07;;;2.30;1.00;;;;;;5096583;28;20163;-77
2020/12/01 05:50:01;;;;;;;19.33;8.45;;;2.30;1.00;;;;;;5096647;28;20193;-76
2020/12/01 05:52:56;;;;;;;12.93;6.20;;;2.30;1.00;;;;;;5078809;28;20661;-77
2020/12/01 05:55:27;;;;;;;15.63;7.15;;;2.40;1.00;;;;;;5080758;28;20167;-77
2020/12/01 05:58:05;;;;;;;19.70;7.38;;;2.40;1.00;;;;;;5095246;28;20170;-77
2020/12/01 06:00:44;;;;;;;41.00;7.97;;;2.40;1.00;;;;;;5092127;28;20796;-76
2020/12/01 06:03:24;;;;;;;23.23;6.80;;;2.40;1.00;;;;;;5076589;28;20159;-77
2020/12/01 06:05:58;;;;;;;17.60;6.53;;;2.40;1.00;;;;;;5076482;28;20208;-79
2020/12/01 06:08:43;;;;;;;21.08;7.63;;;2.40;1.00;;;;;;5076624;28;20170;-77
2020/12/01 06:11:30;;;;;;;18.42;6.25;;;2.40;1.00;;;;;;5102751;28;20538;-77
2020/12/01 06:14:24;;;;;;;24.00;6.68;;;2.40;1.00;;;;;;5091569;28;20273;-77
2020/12/01 06:16:55;;;;;;;20.40;8.30;;;2.30;1.00;;;;;;5076677;28;20195;-77
2020/12/01 06:19:50;;;;;;;18.25;8.27;;;2.40;1.00;;;;;;5090871;28;20170;-75
2020/12/01 06:23:06;;;;;;;15.68;7.15;;;2.40;1.00;;;;;;5085555;28;20643;-76
2020/12/01 06:25:57;;;;;;;12.40;6.50;;;2.40;1.00;;;;;;5080301;28;20223;-77
2020/12/01 06:28:42;;;;;;;15.13;6.80;;;2.40;1.00;;;;;;5096328;28;20636;-76
2020/12/01 06:31:33;;;;;;;18.73;7.63;;;2.50;1.00;;;;;;5094602;28;20169;-77
2020/12/01 06:34:35;;;;;;;14.45;6.78;;;2.50;1.00;;;;;;5092583;28;20265;-77
2020/12/01 06:37:23;;;;;;;22.27;6.45;;;2.50;1.00;;;;;;5015087;28;20251;-78
2020/12/01 06:39:53;;;;;;;15.85;6.55;;;2.50;1.00;;;;;;5024790;28;20188;-76
2020/12/01 06:42:33;;;;;;;13.32;7.40;;;2.50;1.00;;;;;;5032549;28;20184;-78
2020/12/01 06:45:34;;;;;;;9.98;5.68;;;2.50;1.00;;;;;;5006850;28;20177;-75
2020/12/01 06:48:42;;;;;;;10.07;5.75;;;2.50;1.00;;;;;;4967707;28;20301;-77
2020/12/01 06:51:19;;;;;;;15.35;6.97;;;2.50;1.00;;;;;;4955143;28;20688;-77
2020/12/01 06:54:12;;;;;;;13.90;6.00;;;2.50;1.00;;;;;;4972217;28;20205;-77
2020/12/01 06:57:16;;;;;;;17.20;6.40;;;2.50;1.00;;;;;;4973297;28;20190;-77
2020/12/01 06:59:45;;;;;;;15.55;6.50;;;2.50;1.00;;;;;;4955139;29;20182;-76
2020/12/01 07:02:20;;;;;;;16.00;6.30;;;2.50;1.00;;;;;;4971902;28;20206;-76
2020/12/01 07:04:49;;;;;;;14.05;7.32;;;2.40;1.00;;;;;;4977576;28;20182;-76
2020/12/01 07:07:37;;;;;;;16.10;6.93;;;2.40;1.00;;;;;;4958008;28;20292;-75
2020/12/01 07:10:26;;;;;;;19.15;7.10;;;2.40;1.00;;;;;;4974234;28;20285;-76
2020/12/01 07:13:30;;;;;;;19.35;6.13;;;2.40;1.00;;;;;;4998477;28;20181;-76
2020/12/01 07:16:20;;;;;;;11.20;5.22;;;2.40;1.00;;;;;;5013383;28;20274;-77
2020/12/01 07:18:52;;;;;;;16.35;5.82;;;2.40;1.00;;;;;;5017791;28;20553;-77
2020/12/01 07:21:24;;;;;;;23.40;5.88;;;2.50;1.00;;;;;;5026125;28;20187;-77
2020/12/01 07:24:12;;;;;;;21.05;7.65;;;2.60;1.00;;;;;;5043805;28;20210;-77
2020/12/01 07:26:56;;;;;;;12.10;6.28;;;2.60;1.00;;;;;;5052495;28;20271;-77
2020/12/01 07:29:47;;;;;;;12.23;5.80;;;2.60;1.00;;;;;;5052241;28;20164;-77
2020/12/01 07:32:28;;;;;;;17.30;7.40;;;2.60;1.00;;;;;;5045819;28;20183;-77
2020/12/01 07:35:28;;;;;;;15.50;7.25;;;2.60;1.00;;;;;;5048613;28;20192;-77
2020/12/01 07:38:30;;;;;;;13.30;5.85;;;2.70;1.00;;;;;;5076823;28;20255;-77
2020/12/01 07:41:25;;;;;;;14.55;5.93;;;2.70;1.00;;;;;;5089948;28;20174;-77
2020/12/01 07:44:10;;;;;;;10.63;5.10;;;2.70;1.00;;;;;;5073545;28;20257;-77
2020/12/01 07:49:27;;;;;;;18.35;6.25;;;2.70;1.00;;;;;;5092560;28;20184;-77
2020/12/01 07:52:04;;;;;;;17.17;6.55;;;2.70;1.00;;;;;;5093684;28;20189;-77
2020/12/01 07:54:31;;;;;;;12.93;6.15;;;2.80;1.00;;;;;;5107032;28;20676;-77
2020/12/01 07:56:57;;;;;;;18.65;7.75;;;2.70;1.00;;;;;;5113928;28;20230;-77
2020/12/01 07:59:23;;;;;;;25.40;7.00;;;2.80;1.00;;;;;;5100723;28;20166;-77
2020/12/01 08:01:48;;;;;;;17.03;6.87;;;2.80;1.00;;;;;;5093733;28;20625;-77
2020/12/01 08:04:17;;;;;;;25.43;8.20;;;2.80;1.00;;;;;;5090626;28;20171;-77
2020/12/01 08:06:43;;;;;;;15.45;7.80;;;2.80;1.00;;;;;;5092632;28;20170;-77
2020/12/01 08:09:26;;;;;;;12.87;7.57;;;2.90;1.00;;;;;;5093458;28;20519;-77
2020/12/01 08:11:54;;;;;;;17.65;7.65;;;2.90;1.00;;;;;;5093147;28;21040;-77
2020/12/01 08:14:20;;;;;;;20.05;7.63;;;3.00;1.00;;;;;;5086451;28;20191;-77
2020/12/01 08:17:03;;;;;;;20.30;7.77;;;2.90;1.00;;;;;;5072965;28;20217;-77
2020/12/01 08:19:32;;;;;;;15.40;7.30;;;2.90;1.00;;;;;;5078427;28;20403;-76
2020/12/01 08:21:59;;;;;;;15.63;7.30;;;2.90;1.00;;;;;;5092781;28;20174;-76
2020/12/01 08:24:29;;;;;;;20.58;7.70;;;2.90;1.00;;;;;;5092765;28;20151;-76
2020/12/01 08:27:25;;;;;;;19.80;7.75;;;2.90;1.00;;;;;;5091725;28;20170;-76
2020/12/01 08:29:54;;;;;;;15.32;7.47;;;2.90;1.00;;;;;;5091125;28;20178;-76
2020/12/01 08:32:37;;;;;;;14.57;6.47;;;2.90;1.00;;;;;;5084989;28;20171;-76
2020/12/01 08:35:42;;;;;;;19.08;8.20;;;3.00;1.00;;;;;;5088883;28;20166;-76
2020/12/01 08:38:16;;;;;;;10.98;6.25;;;3.00;1.00;;;;;;5010736;28;20212;-76
2020/12/01 08:41:01;;;;;;;17.73;6.57;;;3.10;1.00;;;;;;4991228;28;20618;-76
2020/12/01 08:43:49;;;;;;;12.40;6.35;;;3.10;1.00;;;;;;5006504;28;20656;-76
2020/12/01 08:46:22;;;;;;;14.90;7.53;;;3.20;1.00;;;;;;4994594;28;20743;-77
2020/12/01 08:48:53;;;;;;;15.52;6.97;;;3.20;1.00;;;;;;5010601;28;20755;-77
2020/12/01 08:51:37;;;;;;;19.27;8.90;;;3.20;1.00;;;;;;5010714;28;20199;-77
2020/12/01 08:54:05;;;;;;;22.90;7.50;;;3.30;1.00;;;;;;4997308;28;20173;-76
2020/12/01 08:57:01;;;;;;;14.77;7.15;;;3.30;1.00;;;;;;5030264;28;20262;-77
2020/12/01 08:59:38;;;;;;;23.52;8.57;;;3.40;1.00;;;;;;4990988;28;20188;-77
2020/12/01 09:02:08;;;;;;;14.65;6.40;;;3.40;1.00;;;;;;4972244;28;20650;-76
2020/12/01 09:04:35;;;;;;;22.63;8.77;;;3.40;1.00;;;;;;4967542;28;20197;-76
2020/12/01 09:07:36;;;;;;;20.50;7.97;;;3.40;1.00;;;;;;4968959;28;20203;-76
2020/12/01 09:10:22;;;;;;;17.45;7.85;;;3.40;1.00;;;;;;4913958;29;20192;-76
2020/12/01 09:23:59;;;;;;;21.60;6.70;;;3.60;1.00;;;;;;4975226;28;20174;-77
2020/12/01 09:26:25;;;;;;;16.15;7.43;;;3.60;1.00;;;;;;4975196;28;20680;-77
2020/12/01 09:28:53;;;;;;;17.50;7.57;;;3.60;1.00;;;;;;4975192;28;20174;-77
2020/12/01 09:31:21;;;;;;;16.17;6.60;;;3.70;1.00;;;;;;4974856;28;20170;-77
2020/12/01 09:33:47;;;;;;;17.92;8.45;;;3.70;1.00;;;;;;4974864;28;20614;-78
2020/12/01 09:36:22;;;;;;;23.87;8.13;;;3.70;1.00;;;;;;4991745;28;20308;-78
2020/12/01 09:38:49;;;;;;;17.25;7.85;;;3.70;1.00;;;;;;5010492;28;20460;-78
2020/12/01 09:41:17;;;;;;;18.67;9.07;;;3.80;1.00;;;;;;5013836;28;20597;-77
2020/12/01 09:43:52;;;;;;;18.08;7.93;;;3.80;1.00;;;;;;5013949;28;20165;-78
2020/12/01 09:46:26;;;;;;;17.58;8.10;;;3.90;1.00;;;;;;5030297;28;20191;-78
2020/12/01 09:48:52;;;;;;;14.73;6.97;;;3.90;1.00;;;;;;5037527;28;20639;-77
2020/12/01 09:51:18;;;;;;;17.10;7.43;;;3.90;1.00;;;;;;5053669;28;20199;-78
2020/12/01 09:54:05;;;;;;;17.52;7.20;;;4.00;1.00;;;;;;5053425;28;20237;-78
2020/12/01 10:35:37;;;;;;;20.10;8.40;;;4.80;1.00;;;;;;5074746;28;20265;-76
2020/12/01 10:38:03;;;;;;;17.20;8.23;;;4.80;1.00;;;;;;5074908;28;20159;-76
2020/12/01 10:40:29;;;;;;;15.83;7.63;;;4.80;1.00;;;;;;5072808;28;20622;-76
2020/12/01 10:42:56;;;;;;;16.05;7.55;;;4.80;1.00;;;;;;5072380;28;20480;-76
2020/12/01 10:45:24;;;;;;;18.70;8.63;;;4.80;1.00;;;;;;5077986;28;20182;-76
2020/12/01 10:47:49;;;;;;;22.23;7.75;;;4.70;1.00;;;;;;5075049;28;20220;-77
2020/12/01 10:50:18;;;;;;;18.87;8.10;;;4.70;1.00;;;;;;5083856;28;20178;-77
2020/12/01 10:52:43;;;;;;;20.58;8.45;;;4.60;1.00;;;;;;5094739;28;20241;-77
2020/12/01 10:55:14;;;;;;;18.80;8.93;;;4.60;1.00;;;;;;5094584;28;20207;-77
2020/12/01 10:57:40;;;;;;;17.25;8.63;;;4.60;1.00;;;;;;5094472;28;20186;-77
2020/12/01 11:00:09;;;;;;;16.73;7.90;;;4.50;1.00;;;;;;5088282;28;20175;-78
2020/12/01 11:02:35;;;;;;;18.45;8.85;;;4.50;1.00;;;;;;5087231;28;20235;-77
2020/12/01 11:05:07;;;;;;;22.03;8.70;;;4.50;1.00;;;;;;5094545;28;20619;-77
2020/12/01 11:07:32;;;;;;;18.17;8.10;;;4.50;1.00;;;;;;5095499;28;20396;-76
2020/12/01 11:10:24;;;;;;;15.00;7.83;;;4.50;1.00;;;;;;5094406;28;20227;-77
2020/12/01 11:12:50;;;;;;;15.65;8.15;;;4.50;1.00;;;;;;5095170;28;20162;-77
2020/12/01 11:15:25;;;;;;;17.00;8.70;;;4.50;1.00;;;;;;5095314;28;20161;-77
2020/12/01 11:17:51;;;;;;;17.98;7.60;;;4.50;1.00;;;;;;5090420;28;20617;-77
2020/12/01 11:20:19;;;;;;;20.17;8.43;;;4.60;1.00;;;;;;5075270;28;20235;-77
2020/12/01 11:22:49;;;;;;;21.15;8.93;;;4.70;1.00;;;;;;5080042;28;20630;-76
2020/12/01 11:25:16;;;;;;;22.58;8.85;;;4.80;1.00;;;;;;5079556;28;20198;-77
2020/12/01 11:27:42;;;;;;;25.65;7.80;;;4.90;1.00;;;;;;5094139;28;20162;-77
2020/12/01 11:30:08;;;;;;;20.90;9.13;;;4.80;1.00;;;;;;5084387;28;20182;-77
2020/12/01 11:32:34;;;;;;;18.83;8.50;;;4.80;1.00;;;;;;5084577;28;20657;-78
2020/12/01 11:35:00;;;;;;;23.13;9.70;;;4.80;1.00;;;;;;5084760;28;20496;-78
2020/12/01 11:37:26;;;;;;;25.17;9.07;;;4.80;1.00;;;;;;5072506;28;20198;-78
2020/12/01 11:39:51;;;;;;;17.97;7.97;;;4.80;1.00;;;;;;5073519;28;20393;-78
2020/12/01 11:42:17;;;;;;;17.50;8.83;;;;;;;;;;5080305;28;20167;-78
2020/12/01 11:44:43;;;;;;;25.75;8.98;;;4.80;1.00;;;;;;5093829;28;20625;-78
2020/12/01 11:47:12;;;;;;;16.17;7.50;;;4.80;1.00;;;;;;5083231;28;20198;-76
2020/12/01 11:49:38;;;;;;;17.77;8.32;;;;;;;;;;5073531;28;20618;-77
2020/12/01 11:52:04;;;;;;;16.17;8.33;;;;;;;;;;5090449;28;20198;-77
2020/12/01 11:54:31;;;;;;;20.00;8.38;;;5.20;1.00;;;;;;5078210;28;20424;-78
2020/12/01 11:57:13;;;;;;;22.52;8.80;;;4.90;1.00;;;;;;5093995;28;20280;-77
2020/12/01 11:59:43;;;;;;;16.10;8.15;;;5.00;1.00;;;;;;5094567;28;20158;-77
2020/12/01 12:02:08;;;;;;;20.85;8.35;;;4.90;1.00;;;;;;5090240;28;20645;-76
2020/12/01 12:04:34;;;;;;;22.23;9.90;;;4.90;1.00;;;;;;5075970;28;20174;-77
2020/12/01 12:07:13;;;;;;;18.60;7.43;;;4.90;1.00;;;;;;5074056;28;20524;-76
2020/12/01 12:09:39;;;;;;;15.93;8.18;;;4.90;1.00;;;;;;5074213;28;20246;-76
2020/12/01 12:12:04;;;;;;;15.97;8.50;;;4.90;1.00;;;;;;5072982;28;20704;-77
2020/12/01 12:14:30;;;;;;;23.70;8.60;;;4.90;1.00;;;;;;5073062;28;20408;-76
2020/12/01 12:17:01;;;;;;;23.10;8.73;;;4.90;1.00;;;;;;5074157;28;20187;-76
2020/12/01 12:19:26;;;;;;;21.45;8.82;;;4.80;1.00;;;;;;5073657;28;20159;-77
2020/12/01 12:21:52;;;;;;;24.53;8.80;;;4.80;1.00;;;;;;5072895;28;20172;-76
2020/12/01 12:24:18;;;;;;;18.40;8.07;;;4.80;1.00;;;;;;5073061;28;20566;-77
2020/12/01 12:26:43;;;;;;;26.37;8.83;;;4.80;1.00;;;;;;5072818;28;20175;-77
2020/12/01 12:29:09;;;;;;;20.40;8.73;;;4.80;1.00;;;;;;5072856;28;20246;-77
2020/12/01 12:31:36;;;;;;;17.73;8.98;;;4.80;1.00;;;;;;5071596;28;20178;-77
2020/12/01 12:34:01;;;;;;;29.13;9.10;;;4.80;1.00;;;;;;5073031;28;20190;-76
2020/12/01 12:36:27;;;;;;;24.83;9.20;;;4.70;1.00;;;;;;5072663;28;20214;-77
2020/12/01 12:38:55;;;;;;;18.60;8.57;;;4.70;1.00;;;;;;5072919;28;20156;-77
2020/12/01 12:41:20;;;;;;;22.40;9.85;;;4.80;1.00;;;;;;5088335;28;20163;-77
2020/12/01 12:43:46;;;;;;;18.93;9.17;;;;;;;;;;5083813;28;20239;-77
2020/12/01 12:46:12;;;;;;;21.20;9.93;;;;;;;;;;5093459;28;20159;-77
2020/12/01 12:48:38;;;;;;;22.33;9.60;;;;;;;;;;5093220;28;20393;-76
2020/12/01 12:51:04;;;;;;;31.53;9.60;;;;;;;;;;5092995;28;20186;-76
2020/12/01 12:53:30;;;;;;;20.60;8.20;;;;;;;;;;5095957;28;20475;-77
2020/12/01 12:55:56;;;;;;;26.37;9.30;;;4.70;1.00;;;;;;5097055;28;20842;-77
2020/12/01 12:58:22;;;;;;;24.20;9.60;;;;;;;;;;5097197;28;20407;-77
2020/12/01 13:00:48;;;;;;;21.48;9.65;;;4.70;1.00;;;;;;5091206;28;20162;-77
2020/12/01 13:03:13;;;;;;;23.93;9.40;;;4.80;1.00;;;;;;5077052;28;20519;-77
2020/12/01 13:05:39;;;;;;;19.67;8.80;;;4.80;1.00;;;;;;5075335;28;20166;-76
2020/12/01 13:08:05;;;;;;;25.20;8.67;;;4.80;1.00;;;;;;5076594;28;20155;-77
2020/12/01 13:10:32;;;;;;;21.85;10.15;;;4.90;1.00;;;;;;5076531;28;20694;-77
2020/12/01 13:12:59;;;;;;;21.63;10.18;;;5.00;1.00;;;;;;5076422;28;20661;-76
2020/12/01 13:15:25;;;;;;;20.15;9.40;;;5.00;1.00;;;;;;5075191;28;20193;-77
2020/12/01 13:17:50;;;;;;;21.00;8.60;;;5.00;1.00;;;;;;5076357;28;20194;-78
2020/12/01 13:20:20;;;;;;;23.60;9.60;;;4.90;1.00;;;;;;5076587;28;20394;-78
2020/12/01 13:22:45;;;;;;;27.52;10.30;;;4.90;1.00;;;;;;5076094;28;20641;-78
2020/12/01 13:25:11;;;;;;;21.53;9.30;;;5.00;1.00;;;;;;5075061;28;20229;-78
2020/12/01 13:27:37;;;;;;;25.23;10.30;;;5.00;1.00;;;;;;5076245;28;20600;-78
2020/12/01 13:30:05;;;;;;;21.50;9.17;;;5.00;1.00;;;;;;5076148;28;20466;-78
2020/12/01 13:32:30;;;;;;;19.80;9.32;;;5.00;1.00;;;;;;5081634;28;20215;-77
2020/12/01 13:34:56;;;;;;;26.13;11.07;;;5.00;1.00;;;;;;5096527;28;20162;-78
2020/12/01 13:37:21;;;;;;;25.40;11.00;;;5.00;1.00;;;;;;5096151;28;20574;-78
2020/12/01 13:39:47;;;;;;;22.27;9.90;;;;;;;;;;5096180;28;20614;-78
2020/12/01 13:42:13;;;;;;;19.70;9.35;;;4.90;1.00;;;;;;5096203;28;20151;-78
2020/12/01 13:44:39;;;;;;;22.93;8.50;;;4.90;1.00;;;;;;5096283;28;20170;-78
2020/12/01 13:47:04;;;;;;;24.87;10.03;;;4.90;1.00;;;;;;5096071;28;20170;-78
2020/12/01 13:49:30;;;;;;;23.33;10.10;;;4.80;1.00;;;;;;5096516;28;20162;-76
2020/12/01 13:51:58;;;;;;;22.03;9.43;;;;;;;;;;5096022;28;20189;-77
2020/12/01 13:54:24;;;;;;;22.30;8.95;;;;;;;;;;5095682;28;20151;-77
2020/12/01 13:56:50;;;;;;;13.93;6.93;;;;;;;;;;5094748;28;20212;-76
2020/12/01 13:59:16;;;;;;;21.47;7.83;;;;;;;;;;5095964;28;20473;-76
2020/12/01 14:01:42;;;;;;;25.02;9.95;;;;;;;;;;5082508;28;20758;-76
2020/12/01 14:04:08;;;;;;;24.60;9.57;;;;;;;;;;5074939;28;20159;-77
2020/12/01 14:06:34;;;;;;;21.55;8.90;;;4.70;1.00;;;;;;5075615;28;20416;-77
2020/12/01 14:09:00;;;;;;;23.20;9.67;;;4.70;1.00;;;;;;5075504;28;20171;-77
2020/12/01 14:11:26;;;;;;;24.88;9.70;;;4.80;1.00;;;;;;5074193;28;20210;-77
2020/12/01 14:13:51;;;;;;;26.97;9.50;;;4.80;1.00;;;;;;5075420;28;20195;-78
2020/12/01 14:16:18;;;;;;;21.73;9.60;;;4.80;1.00;;;;;;5075399;28;20186;-78
2020/12/01 14:18:44;;;;;;;21.98;9.23;;;;;;;;;;5075721;28;20147;-77
2020/12/01 14:21:10;;;;;;;17.98;8.85;;;;;;;;;;5075408;28;20519;-77
2020/12/01 14:23:36;;;;;;;22.58;9.48;;;;;;;;;;5075280;28;20607;-77
2020/12/01 14:26:07;;;;;;;26.65;10.55;;;4.80;1.00;;;;;;5075503;28;20167;-77
2020/12/01 14:28:33;;;;;;;19.60;8.73;;;4.80;1.00;;;;;;5075839;28;20162;-77
2020/12/01 14:30:59;;;;;;;14.63;8.03;;;4.80;1.00;;;;;;5084452;28;20530;-78